CheckWX is a tool to help pilots better visualize weather data.  It is not intended as a substitute for an official pre-flight weather briefing.

12:27:16 UTC

ESNN TAF
Sundsvall-Härnösand Airport
Sundsvall/ Härnösand, Sweden
TAF ESNN 221130Z 2212/2221 14008KT CAVOK

Mar-22@
12:00 UTC

Mar-22 @ 12:00 UTC

Mar-22@
21:00 UTC

Mar-22 @ 21:00 UTC

TAF ESNN 221130Z 2212/2221 14008KT CAVOK
Wind
  • 140° at 8 KTS
Conditions
No significant weather
Cloud Levels
  • No significant clouds